createdAt,value
2022-09-14T00:01:26.473Z,95193.13
2022-09-14T00:03:25.331Z,95198.75
2022-09-14T00:05:23.659Z,95197.59
2022-09-14T00:07:21.838Z,95192.66
2022-09-14T00:09:22.814Z,95193.06
2022-09-14T00:11:22.756Z,95194.56
2022-09-14T00:13:22.370Z,95202.13
2022-09-14T00:15:20.756Z,95197.13
2022-09-14T00:17:18.917Z,95200.59
2022-09-14T00:19:20.277Z,95202.25
2022-09-14T00:21:18.675Z,95201.88
2022-09-14T00:23:16.778Z,95208.41
2022-09-14T00:25:15.093Z,95198.16
2022-09-14T00:27:13.403Z,95199.25
2022-09-14T00:29:13.180Z,95196.06
2022-09-14T00:31:11.928Z,95195.41
2022-09-14T00:33:10.501Z,95195.81
2022-09-14T00:35:09.586Z,95198.06
2022-09-14T00:37:07.708Z,95197.25
2022-09-14T00:39:06.663Z,95196.53
2022-09-14T00:41:06.474Z,95196.69
2022-09-14T00:43:04.754Z,95208.91
2022-09-14T00:45:08.598Z,95201.16
2022-09-14T00:47:06.818Z,95202.81
2022-09-14T00:49:08.321Z,95205.72
2022-09-14T00:51:06.878Z,95211.00
2022-09-14T00:53:05.227Z,95207.38
2022-09-14T00:55:06.709Z,95207.66
2022-09-14T00:57:05.161Z,95215.00
2022-09-14T00:59:10.488Z,95217.78
2022-09-14T01:01:10.609Z,95215.88
2022-09-14T01:03:08.796Z,95219.59
2022-09-14T01:05:08.422Z,95225.00
2022-09-14T01:07:13.906Z,95215.88
2022-09-14T01:09:20.294Z,95218.34
2022-09-14T01:11:35.105Z,95212.97
2022-09-14T01:13:40.950Z,95221.69
2022-09-14T01:15:48.085Z,95224.63
2022-09-14T01:17:54.992Z,95218.78
2022-09-14T01:20:11.028Z,95219.19
2022-09-14T01:22:15.875Z,95217.69
2022-09-14T01:24:29.481Z,95219.34
2022-09-14T01:27:00.251Z,95212.81
2022-09-14T01:29:03.664Z,95217.09
2022-09-14T01:31:06.699Z,95205.31
2022-09-14T01:33:11.683Z,95202.41
2022-09-14T01:35:16.249Z,95201.97
2022-09-14T01:37:18.691Z,95208.22
2022-09-14T01:39:19.335Z,95203.22
2022-09-14T01:41:21.102Z,95213.25
2022-09-14T01:43:23.985Z,95216.00
2022-09-14T01:45:26.191Z,95211.16
2022-09-14T01:47:29.075Z,95212.69
2022-09-14T01:49:32.317Z,95219.78
2022-09-14T01:51:36.583Z,95217.53
2022-09-14T01:53:39.803Z,95219.22
2022-09-14T01:55:43.736Z,95216.59
2022-09-14T01:57:46.074Z,95215.59
2022-09-14T01:59:46.179Z,95211.16
2022-09-14T02:01:50.574Z,95207.59
2022-09-14T02:03:53.390Z,95210.66
2022-09-14T02:05:57.583Z,95211.22
2022-09-14T02:07:56.608Z,95207.75
2022-09-14T02:09:56.489Z,95205.94
2022-09-14T02:12:00.670Z,95213.56
2022-09-14T02:13:59.153Z,95215.09
2022-09-14T02:15:57.667Z,95210.13
2022-09-14T02:17:57.473Z,95220.53
2022-09-14T02:19:58.320Z,95220.94
2022-09-14T02:21:56.510Z,95219.97
2022-09-14T02:23:55.405Z,95212.75
2022-09-14T02:25:54.060Z,95204.44
2022-09-14T02:27:52.819Z,95198.06
2022-09-14T02:29:51.624Z,95206.81
2022-09-14T02:32:02.173Z,95212.06
2022-09-14T02:34:12.138Z,95214.00
2022-09-14T02:36:18.005Z,95215.97
2022-09-14T02:38:28.070Z,95220.09
2022-09-14T02:40:34.022Z,95222.06
2022-09-14T02:42:40.844Z,95224.97
2022-09-14T02:44:48.849Z,95221.50
2022-09-14T02:46:51.734Z,95222.19
2022-09-14T02:48:56.152Z,95220.94
2022-09-14T02:50:58.845Z,95217.59
2022-09-14T02:53:03.199Z,95217.91
2022-09-14T02:55:08.638Z,95216.22
2022-09-14T02:57:07.006Z,95214.69
2022-09-14T02:59:05.755Z,95216.34
2022-09-14T03:01:05.174Z,95229.41
2022-09-14T03:03:03.825Z,95218.28
2022-09-14T03:05:01.976Z,95225.66
2022-09-14T03:07:01.530Z,95222.88
2022-09-14T03:08:59.844Z,95226.59
2022-09-14T03:10:58.210Z,95226.75
2022-09-14T03:12:56.451Z,95222.47
2022-09-14T03:14:54.647Z,95218.16
2022-09-14T03:16:52.932Z,95224.66
2022-09-14T03:18:51.232Z,95225.06
2022-09-14T03:20:49.406Z,95221.72
2022-09-14T03:22:49.422Z,95223.41
2022-09-14T03:24:47.577Z,95224.38
2022-09-14T03:26:46.474Z,95225.47
2022-09-14T03:28:45.315Z,95224.63
2022-09-14T03:30:43.435Z,95213.66
2022-09-14T03:32:41.708Z,95220.88
2022-09-14T03:34:39.772Z,95222.53
2022-09-14T03:36:38.045Z,95224.19
2022-09-14T03:38:37.753Z,95224.19
2022-09-14T03:40:36.019Z,95224.19
2022-09-14T03:42:34.348Z,95224.44
2022-09-14T03:44:32.518Z,95220.44
2022-09-14T03:46:30.724Z,95221.56
2022-09-14T03:48:30.805Z,95223.06
2022-09-14T03:50:29.276Z,95228.63
2022-09-14T03:52:27.530Z,95229.56
2022-09-14T03:54:27.261Z,95224.44
2022-09-14T03:56:25.552Z,95237.59
2022-09-14T03:58:23.797Z,95237.47
2022-09-14T04:00:22.254Z,95235.97
2022-09-14T04:02:20.521Z,95239.16
2022-09-14T04:04:18.635Z,95232.75
2022-09-14T04:06:17.389Z,95241.63
2022-09-14T04:08:15.543Z,95232.50
2022-09-14T04:10:15.077Z,95225.44
2022-09-14T04:12:13.340Z,95232.53
2022-09-14T04:14:11.738Z,95227.28
2022-09-14T04:16:10.688Z,95231.41
2022-09-14T04:18:08.990Z,95232.97
2022-09-14T04:20:08.205Z,95230.38
2022-09-14T04:22:06.375Z,95232.03
2022-09-14T04:24:15.328Z,95237.03
2022-09-14T04:26:19.312Z,95234.38
2022-09-14T04:28:20.395Z,95239.94
2022-09-14T04:30:19.286Z,95231.03
2022-09-14T04:32:18.333Z,95229.75
2022-09-14T04:34:16.534Z,95225.78
2022-09-14T04:36:16.883Z,95220.03
2022-09-14T04:38:14.982Z,95219.81
2022-09-14T04:40:13.197Z,95228.69
2022-09-14T04:42:12.772Z,95236.06
2022-09-14T04:44:10.997Z,95239.56
2022-09-14T04:46:12.404Z,95244.03
2022-09-14T04:48:10.583Z,95239.53
2022-09-14T04:50:09.673Z,95234.31
2022-09-14T04:52:07.953Z,95239.47
2022-09-14T04:54:07.597Z,95237.38
2022-09-14T04:56:07.895Z,95246.13
2022-09-14T04:58:07.563Z,95249.00
2022-09-14T05:00:06.828Z,95242.91
2022-09-14T05:02:05.440Z,95247.31
2022-09-14T05:04:04.401Z,95246.59
2022-09-14T05:06:03.876Z,95253.16
2022-09-14T05:08:02.109Z,95259.13
2022-09-14T05:10:00.316Z,95258.44
2022-09-14T05:11:58.630Z,95260.72
2022-09-14T05:13:59.202Z,95261.25
2022-09-14T05:16:05.486Z,95260.00
2022-09-14T05:18:04.143Z,95264.41
2022-09-14T05:20:07.422Z,95259.91
2022-09-14T05:22:05.795Z,95263.72
2022-09-14T05:24:05.928Z,95271.13
2022-09-14T05:26:05.780Z,95260.19
2022-09-14T05:28:04.896Z,95267.19
2022-09-14T05:30:05.107Z,95280.25
2022-09-14T05:32:03.747Z,95274.75
2022-09-14T05:34:01.930Z,95267.09
2022-09-14T05:36:02.604Z,95267.47
2022-09-14T05:38:00.665Z,95273.69
2022-09-14T05:39:59.008Z,95277.97
2022-09-14T05:41:57.258Z,95270.47
2022-09-14T05:43:55.408Z,95274.50
2022-09-14T05:45:54.947Z,95271.97
2022-09-14T05:47:53.293Z,95273.28
2022-09-14T05:49:51.444Z,95282.72
2022-09-14T05:51:49.918Z,95283.63
2022-09-14T05:53:50.307Z,95288.59
2022-09-14T05:55:48.383Z,95286.28
2022-09-14T05:57:50.272Z,95292.91
2022-09-14T05:59:48.632Z,95293.19
2022-09-14T06:01:48.363Z,95288.41
2022-09-14T06:03:47.942Z,95285.63
2022-09-14T06:05:46.194Z,95284.28
2022-09-14T06:07:44.927Z,95277.63
2022-09-14T06:09:43.817Z,95280.63
2022-09-14T06:11:41.922Z,95280.69
2022-09-14T06:13:40.359Z,95272.03
2022-09-14T06:15:38.622Z,95273.56
2022-09-14T06:17:38.849Z,95273.56
2022-09-14T06:19:36.902Z,95273.94
2022-09-14T06:21:36.404Z,95279.75
2022-09-14T06:23:35.039Z,95277.47
2022-09-14T06:25:33.080Z,95272.69
2022-09-14T06:27:31.364Z,95282.31
2022-09-14T06:29:29.544Z,95278.88
2022-09-14T06:31:28.395Z,95268.41
2022-09-14T06:33:28.214Z,95270.97
2022-09-14T06:35:26.455Z,95271.22
2022-09-14T06:37:24.786Z,95260.88
2022-09-14T06:39:24.948Z,95264.13
2022-09-14T06:41:29.309Z,95272.75
2022-09-14T06:43:27.468Z,95265.97
2022-09-14T06:45:25.742Z,95267.63
2022-09-14T06:47:24.395Z,95277.13
2022-09-14T06:49:24.053Z,95272.34
2022-09-14T06:51:24.353Z,95272.19
2022-09-14T06:53:22.524Z,95266.13
2022-09-14T06:55:20.867Z,95271.34
2022-09-14T06:57:19.286Z,95283.34
2022-09-14T06:59:19.379Z,95265.19
2022-09-14T07:01:19.986Z,95269.56
2022-09-14T07:03:18.421Z,95271.22
2022-09-14T07:05:22.192Z,95275.31
2022-09-14T07:07:20.578Z,95276.69
2022-09-14T07:09:20.470Z,95280.31
2022-09-14T07:11:20.201Z,95272.50
2022-09-14T07:13:18.379Z,95263.53
2022-09-14T07:15:16.653Z,95263.53
2022-09-14T07:17:16.902Z,95259.06
2022-09-14T07:19:21.732Z,95261.91
2022-09-14T07:21:21.319Z,95252.94
2022-09-14T07:23:19.668Z,95257.81
2022-09-14T07:25:21.058Z,95265.09
2022-09-14T07:27:19.251Z,95259.25
2022-09-14T07:29:19.234Z,95258.31
2022-09-14T07:31:19.944Z,95258.66
2022-09-14T07:33:18.183Z,95251.69
2022-09-14T07:35:16.811Z,95255.84
2022-09-14T07:37:16.495Z,95255.63
2022-09-14T07:39:16.487Z,95255.06
2022-09-14T07:41:14.677Z,95247.94
2022-09-14T07:43:13.258Z,95252.28
2022-09-14T07:45:11.803Z,95252.97
2022-09-14T07:47:09.969Z,95253.25
2022-09-14T07:49:09.435Z,95249.16
2022-09-14T07:51:10.320Z,95256.03
2022-09-14T07:53:09.967Z,95246.41
2022-09-14T07:55:09.724Z,95241.97
2022-09-14T07:57:07.834Z,95248.41
2022-09-14T07:59:33.481Z,95254.72
2022-09-14T08:01:29.219Z,95256.00
2022-09-14T08:03:27.320Z,95256.09
2022-09-14T08:05:26.161Z,95261.06
2022-09-14T08:07:24.892Z,95259.28
2022-09-14T08:09:24.513Z,95253.25
2022-09-14T08:11:25.061Z,95257.53
2022-09-14T08:13:23.265Z,95248.00
2022-09-14T08:15:25.203Z,95240.66
2022-09-14T08:17:26.514Z,95242.94
2022-09-14T08:19:24.694Z,95234.38
2022-09-14T08:21:23.099Z,95231.44
2022-09-14T08:23:21.286Z,95230.06
2022-09-14T08:25:20.844Z,95230.00
2022-09-14T08:27:18.844Z,95240.13
2022-09-14T08:29:19.584Z,95240.56
2022-09-14T08:31:21.126Z,95238.75
2022-09-14T08:33:19.610Z,95234.03
2022-09-14T08:35:17.825Z,95236.31
2022-09-14T08:37:18.809Z,95233.78
2022-09-14T08:39:17.955Z,95235.28
2022-09-14T08:41:28.778Z,95230.13
2022-09-14T08:43:28.913Z,95230.47
2022-09-14T08:45:30.657Z,95221.41
2022-09-14T08:47:36.187Z,95226.81
2022-09-14T08:49:46.242Z,95227.44
2022-09-14T08:51:44.370Z,95225.88
2022-09-14T08:53:46.325Z,95219.59
2022-09-14T08:55:50.304Z,95219.19
2022-09-14T08:57:52.369Z,95217.22
2022-09-14T09:00:00.580Z,95213.19
2022-09-14T09:02:09.766Z,95208.88
2022-09-14T09:04:21.289Z,95212.75
2022-09-14T09:06:25.570Z,95206.50
2022-09-14T09:08:34.452Z,95205.38
2022-09-14T09:10:35.117Z,95206.03
2022-09-14T09:12:38.543Z,95206.25
2022-09-14T09:14:55.811Z,95201.03
2022-09-14T09:17:16.838Z,95198.47
2022-09-14T09:19:24.751Z,95188.88
2022-09-14T09:21:30.934Z,95184.81
2022-09-14T09:23:31.181Z,95193.69
2022-09-14T09:25:45.261Z,95180.38
2022-09-14T09:27:43.425Z,95187.09
2022-09-14T09:29:46.327Z,95187.81
2022-09-14T09:31:47.650Z,95186.47
2022-09-14T09:34:06.818Z,95194.47
2022-09-14T09:36:11.727Z,95182.31
2022-09-14T09:38:15.996Z,95191.03
2022-09-14T09:40:19.286Z,95184.09
2022-09-14T09:42:21.227Z,95181.69
2022-09-14T09:44:19.839Z,95181.59
2022-09-14T09:46:24.271Z,95168.81
2022-09-14T09:48:25.924Z,95170.38
2022-09-14T09:50:26.432Z,95176.38
2022-09-14T09:52:25.450Z,95167.69
2022-09-14T09:54:34.621Z,95173.75
2022-09-14T09:56:40.634Z,95170.41
2022-09-14T09:58:39.998Z,95157.09
2022-09-14T10:00:39.056Z,95163.56
2022-09-14T10:02:44.013Z,95162.97
2022-09-14T10:05:00.559Z,95160.44
2022-09-14T10:07:24.694Z,95155.06
2022-09-14T10:09:27.157Z,95142.84
2022-09-14T10:11:38.282Z,95140.53
2022-09-14T10:13:41.055Z,95135.81
2022-09-14T10:15:43.450Z,95130.09
2022-09-14T10:17:55.591Z,95126.47
2022-09-14T10:19:56.136Z,95123.16
2022-09-14T10:22:07.144Z,95125.72
2022-09-14T10:24:17.303Z,95126.22
2022-09-14T10:26:24.375Z,95119.22
2022-09-14T10:28:25.975Z,95129.78
2022-09-14T10:30:29.923Z,95119.34
2022-09-14T10:32:30.206Z,95113.59
2022-09-14T10:34:30.616Z,95116.56
2022-09-14T10:36:31.727Z,95110.31
2022-09-14T10:38:37.415Z,95113.97
2022-09-14T10:40:38.787Z,95113.38
2022-09-14T10:42:41.926Z,95115.03
2022-09-14T10:44:53.794Z,95117.47
2022-09-14T10:47:09.410Z,95115.44
2022-09-14T10:49:37.934Z,95107.19
2022-09-14T10:51:47.141Z,95109.03
2022-09-14T10:53:55.471Z,95107.31
2022-09-14T10:56:01.853Z,95105.66
2022-09-14T10:58:24.288Z,95107.66
2022-09-14T11:00:23.629Z,95100.78
2022-09-14T11:02:53.706Z,95098.84
2022-09-14T11:05:08.003Z,95097.22
2022-09-14T11:07:12.787Z,95095.69
2022-09-14T11:09:23.660Z,95101.72
2022-09-14T11:11:41.805Z,95092.75
2022-09-14T11:13:54.074Z,95104.28
2022-09-14T11:16:02.887Z,95091.44
2022-09-14T11:18:15.740Z,95097.50
2022-09-14T11:20:26.701Z,95096.84
2022-09-14T11:22:36.647Z,95100.13
2022-09-14T11:24:40.103Z,95104.13
2022-09-14T11:26:43.785Z,95095.53
2022-09-14T11:28:46.118Z,95085.00
2022-09-14T11:30:51.511Z,95083.31
2022-09-14T11:32:54.253Z,95080.28
2022-09-14T11:34:58.191Z,95074.56
2022-09-14T11:37:01.830Z,95072.78
2022-09-14T11:39:06.700Z,95072.28
2022-09-14T11:41:18.548Z,95062.50
2022-09-14T11:43:23.189Z,95063.50
2022-09-14T11:45:25.919Z,95055.56
2022-09-14T11:47:25.016Z,95061.78
2022-09-14T11:49:35.497Z,95069.63
2022-09-14T11:51:41.786Z,95057.19
2022-09-14T11:53:48.121Z,95063.81
2022-09-14T11:55:49.514Z,95067.78
2022-09-14T11:57:49.635Z,95060.59
2022-09-14T11:59:51.502Z,95065.63
2022-09-14T12:01:49.802Z,95060.28
2022-09-14T12:04:09.406Z,95058.75
2022-09-14T12:06:41.089Z,95049.97
2022-09-14T12:08:41.759Z,95051.03
2022-09-14T12:11:05.674Z,95050.88
2022-09-14T12:13:20.985Z,95047.13
2022-09-14T12:16:04.012Z,95051.69
2022-09-14T12:18:23.475Z,95050.56
2022-09-14T12:20:41.981Z,95062.94
2022-09-14T12:22:41.753Z,95054.81
2022-09-14T12:24:41.262Z,95055.22
2022-09-14T12:26:40.548Z,95053.91
2022-09-14T12:28:49.519Z,95050.22
2022-09-14T12:31:07.993Z,95057.31
2022-09-14T12:34:06.094Z,95055.31
2022-09-14T12:36:05.748Z,95045.69
2022-09-14T12:38:36.980Z,95038.88
2022-09-14T12:40:38.862Z,95042.31
2022-09-14T12:42:36.995Z,95027.59
2022-09-14T12:44:38.386Z,95039.97
2022-09-14T12:46:39.837Z,95044.50
2022-09-14T12:48:58.943Z,95042.03
2022-09-14T12:50:57.453Z,95043.81
2022-09-14T12:53:27.197Z,95041.97
2022-09-14T12:55:50.854Z,95042.47
2022-09-14T12:57:57.588Z,95044.03
2022-09-14T13:00:04.244Z,95044.03
2022-09-14T13:02:20.864Z,95045.19
2022-09-14T13:04:26.081Z,95042.09
2022-09-14T13:06:28.167Z,95037.41
2022-09-14T13:08:26.529Z,95047.66
2022-09-14T13:10:28.901Z,95048.47
2022-09-14T13:12:37.681Z,95041.78
2022-09-14T13:14:38.889Z,95044.16
2022-09-14T13:16:45.624Z,95049.88
2022-09-14T13:18:46.387Z,95040.31
2022-09-14T13:20:52.109Z,95048.66
2022-09-14T13:22:50.843Z,95049.34
2022-09-14T13:24:54.723Z,95041.53
2022-09-14T13:27:13.148Z,95045.81
2022-09-14T13:29:15.905Z,95041.84
2022-09-14T13:31:22.454Z,95046.44
2022-09-14T13:33:21.344Z,95041.19
2022-09-14T13:35:26.511Z,95038.53
2022-09-14T13:37:27.481Z,95053.25
2022-09-14T13:39:29.361Z,95047.03
2022-09-14T13:41:27.719Z,95035.88
2022-09-14T13:43:28.405Z,95043.75
2022-09-14T13:45:28.512Z,95046.91
2022-09-14T13:47:29.196Z,95043.06
2022-09-14T13:49:28.021Z,95043.31
2022-09-14T13:51:31.894Z,95044.69
2022-09-14T13:53:43.321Z,95036.84
2022-09-14T13:55:45.635Z,95034.81
2022-09-14T13:58:06.388Z,95037.94
2022-09-14T14:00:23.549Z,95029.34
2022-09-14T14:02:23.234Z,95020.84
2022-09-14T14:04:37.266Z,95027.94
2022-09-14T14:06:37.821Z,95023.75
2022-09-14T14:08:38.046Z,95018.47
2022-09-14T14:10:40.433Z,95017.88
2022-09-14T14:12:40.565Z,95017.88
2022-09-14T14:14:39.163Z,95017.47
2022-09-14T14:16:40.566Z,95010.44
2022-09-14T14:18:43.810Z,95011.72
2022-09-14T14:20:42.372Z,95009.03
2022-09-14T14:22:41.572Z,95008.91
2022-09-14T14:25:02.084Z,95008.56
2022-09-14T14:26:59.180Z,95015.38
2022-09-14T14:29:09.674Z,95005.53
2022-09-14T14:31:13.650Z,95009.97
2022-09-14T14:33:13.603Z,95009.06
2022-09-14T14:35:20.185Z,95003.34
2022-09-14T14:37:18.502Z,94998.91
2022-09-14T14:39:17.523Z,95000.44
2022-09-14T14:41:17.641Z,95000.19
2022-09-14T14:43:22.138Z,95003.16
2022-09-14T14:45:22.293Z,94996.25
2022-09-14T14:47:23.350Z,95000.25
2022-09-14T14:49:21.959Z,95000.00
2022-09-14T14:51:21.997Z,95001.53
2022-09-14T14:53:20.129Z,94999.56
2022-09-14T14:55:19.910Z,95003.09
2022-09-14T14:57:18.073Z,94988.78
2022-09-14T14:59:29.453Z,94995.00
2022-09-14T15:01:27.787Z,94986.97
2022-09-14T15:03:26.357Z,94993.53
2022-09-14T15:05:24.929Z,94990.28
2022-09-14T15:07:24.561Z,94987.03
2022-09-14T15:09:24.653Z,94987.41
2022-09-14T15:11:23.512Z,94988.00
2022-09-14T15:13:25.332Z,94989.75
2022-09-14T15:15:26.042Z,94982.28
2022-09-14T15:17:24.190Z,94978.44
2022-09-14T15:19:22.367Z,94979.22
2022-09-14T15:21:20.614Z,94977.47
2022-09-14T15:23:20.214Z,94967.63
2022-09-14T15:25:20.601Z,94973.00
2022-09-14T15:27:18.755Z,94972.41
2022-09-14T15:29:18.289Z,94975.63
2022-09-14T15:31:17.009Z,94977.34
2022-09-14T15:33:15.430Z,94969.97
2022-09-14T15:35:15.643Z,94972.31
2022-09-14T15:37:14.498Z,94970.09
2022-09-14T15:39:15.939Z,94974.31
2022-09-14T15:41:16.148Z,94971.25
2022-09-14T15:43:14.319Z,94968.22
2022-09-14T15:45:15.315Z,94965.75
2022-09-14T15:47:15.696Z,94959.53
2022-09-14T15:49:21.255Z,94966.81
2022-09-14T15:51:22.088Z,94958.97
2022-09-14T15:53:20.432Z,94958.16
2022-09-14T15:55:23.183Z,94953.69
2022-09-14T15:57:21.782Z,94954.16
2022-09-14T15:59:23.986Z,94947.69
2022-09-14T16:01:22.393Z,94958.56
2022-09-14T16:03:20.641Z,94957.81
2022-09-14T16:05:20.230Z,94954.56
2022-09-14T16:07:18.668Z,94957.81
2022-09-14T16:09:18.481Z,94962.50
2022-09-14T16:11:17.918Z,94947.75
2022-09-14T16:13:16.229Z,94952.16
2022-09-14T16:15:14.414Z,94957.91
2022-09-14T16:17:12.695Z,94956.81
2022-09-14T16:19:13.911Z,94958.66
2022-09-14T16:21:14.206Z,94957.56
2022-09-14T16:23:13.022Z,94954.56
2022-09-14T16:25:16.025Z,94958.97
2022-09-14T16:27:21.294Z,94953.53
2022-09-14T16:29:43.057Z,94960.50
2022-09-14T16:31:45.126Z,94958.56
2022-09-14T16:33:53.221Z,94951.16
2022-09-14T16:36:03.876Z,94954.75
2022-09-14T16:38:04.582Z,94959.63
2022-09-14T16:40:05.846Z,94962.63
2022-09-14T16:42:12.409Z,94962.91
2022-09-14T16:44:19.045Z,94968.44
2022-09-14T16:46:18.697Z,94959.13
2022-09-14T16:48:16.847Z,94962.56
2022-09-14T16:50:15.548Z,94959.09
2022-09-14T16:52:17.269Z,94957.47
2022-09-14T16:54:23.382Z,94961.47
2022-09-14T16:56:23.420Z,94964.84
2022-09-14T16:58:21.721Z,94953.69
2022-09-14T17:00:24.350Z,94961.59
2022-09-14T17:02:31.377Z,94964.53
2022-09-14T17:04:32.488Z,94969.97
2022-09-14T17:06:34.364Z,94969.78
2022-09-14T17:08:39.623Z,94960.69
2022-09-14T17:10:40.333Z,94965.06
2022-09-14T17:12:41.036Z,94968.41
2022-09-14T17:14:39.437Z,94958.50
2022-09-14T17:16:39.158Z,94962.66
2022-09-14T17:18:41.057Z,94965.19
2022-09-14T17:20:39.712Z,94973.44
2022-09-14T17:22:38.126Z,94980.06
2022-09-14T17:24:36.594Z,94982.56
2022-09-14T17:26:38.575Z,94979.47
2022-09-14T17:28:37.803Z,94972.72
2022-09-14T17:30:36.101Z,94978.09
2022-09-14T17:32:36.133Z,94981.78
2022-09-14T17:34:37.186Z,94986.56
2022-09-14T17:36:38.351Z,94982.03
2022-09-14T17:38:44.608Z,94979.41
2022-09-14T17:40:42.990Z,94983.34
2022-09-14T17:42:44.164Z,94979.22
2022-09-14T17:44:43.723Z,94983.38
2022-09-14T17:46:51.203Z,94977.81
2022-09-14T17:48:53.142Z,94978.63
2022-09-14T17:50:52.508Z,94978.84
2022-09-14T17:52:51.221Z,94983.78
2022-09-14T17:54:52.796Z,94978.03
2022-09-14T17:56:51.346Z,94975.56
2022-09-14T17:58:51.092Z,94984.25
2022-09-14T18:00:50.463Z,94983.22
2022-09-14T18:02:52.203Z,94990.22
2022-09-14T18:04:52.148Z,94991.06
2022-09-14T18:06:50.576Z,94994.97
2022-09-14T18:08:51.571Z,94995.19
2022-09-14T18:10:49.797Z,95002.19
2022-09-14T18:12:48.249Z,95005.69
2022-09-14T18:14:46.456Z,95002.19
2022-09-14T18:16:45.568Z,95014.34
2022-09-14T18:18:44.139Z,95009.59
2022-09-14T18:20:45.789Z,95007.31
2022-09-14T18:22:44.049Z,95013.72
2022-09-14T18:24:42.351Z,95015.56
2022-09-14T18:26:41.160Z,95016.63
2022-09-14T18:28:39.496Z,95018.66
2022-09-14T18:30:42.935Z,95026.50
2022-09-14T18:32:41.851Z,95024.25
2022-09-14T18:34:40.187Z,95021.56
2022-09-14T18:36:40.329Z,95022.75
2022-09-14T18:38:38.765Z,95023.16
2022-09-14T18:40:38.682Z,95017.81
2022-09-14T18:42:37.140Z,95021.72
2022-09-14T18:44:35.437Z,95024.84
2022-09-14T18:46:34.233Z,95021.75
2022-09-14T18:48:32.767Z,95020.69
2022-09-14T18:50:31.345Z,95015.13
2022-09-14T18:52:30.943Z,95019.84
2022-09-14T18:54:29.234Z,95019.66
2022-09-14T18:56:28.085Z,95027.88
2022-09-14T18:58:27.059Z,95024.53
2022-09-14T19:00:25.526Z,95019.81
2022-09-14T19:02:23.734Z,95027.00
2022-09-14T19:04:22.116Z,95029.19
2022-09-14T19:06:21.032Z,95033.69
2022-09-14T19:08:20.662Z,95027.09
2022-09-14T19:10:20.186Z,95045.19
2022-09-14T19:12:18.530Z,95057.13
2022-09-14T19:14:20.838Z,95072.34
2022-09-14T19:16:20.311Z,95077.44
2022-09-14T19:18:18.727Z,95065.06
2022-09-14T19:20:18.196Z,95071.41
2022-09-14T19:22:16.342Z,95070.63
2022-09-14T19:24:17.827Z,95065.50
2022-09-14T19:26:20.919Z,95061.19
2022-09-14T19:28:19.523Z,95062.22
2022-09-14T19:30:18.394Z,95065.66
2022-09-14T19:32:16.807Z,95070.53
2022-09-14T19:34:15.971Z,95064.75
2022-09-14T19:36:17.195Z,95068.66
2022-09-14T19:38:17.297Z,95073.00
2022-09-14T19:40:17.386Z,95072.56
2022-09-14T19:42:15.963Z,95082.94
2022-09-14T19:44:17.345Z,95089.72
2022-09-14T19:46:17.316Z,95088.50
2022-09-14T19:48:15.537Z,95074.31
2022-09-14T19:50:13.778Z,95080.06
2022-09-14T19:52:11.944Z,95091.72
2022-09-14T19:54:11.094Z,95094.69
2022-09-14T19:56:14.388Z,95085.84
2022-09-14T19:58:12.883Z,95098.00
2022-09-14T20:00:17.515Z,95088.34
2022-09-14T20:02:16.328Z,95103.06
2022-09-14T20:04:15.721Z,95090.97
2022-09-14T20:06:19.711Z,95099.41
2022-09-14T20:08:17.859Z,95104.63
2022-09-14T20:10:18.241Z,95109.78
2022-09-14T20:12:17.894Z,95111.22
2022-09-14T20:14:18.673Z,95112.06
2022-09-14T20:16:19.013Z,95121.09
2022-09-14T20:18:17.529Z,95137.63
2022-09-14T20:20:17.392Z,95136.53
2022-09-14T20:22:16.951Z,95138.47
2022-09-14T20:24:18.227Z,95132.09
2022-09-14T20:26:17.739Z,95135.41
2022-09-14T20:28:17.550Z,95130.81
2022-09-14T20:30:15.804Z,95126.00
2022-09-14T20:32:16.318Z,95125.69
2022-09-14T20:34:20.472Z,95135.47
2022-09-14T20:36:20.543Z,95128.50
2022-09-14T20:38:18.822Z,95122.72
2022-09-14T20:40:17.410Z,95122.34
2022-09-14T20:42:15.675Z,95114.28
2022-09-14T20:44:15.977Z,95117.16
2022-09-14T20:46:17.139Z,95113.28
2022-09-14T20:48:15.459Z,95114.84
2022-09-14T20:50:13.728Z,95106.69
2022-09-14T20:52:11.832Z,95127.47
2022-09-14T20:54:12.698Z,95124.59
2022-09-14T20:56:13.443Z,95114.13
2022-09-14T20:58:11.561Z,95116.22
2022-09-14T21:00:13.563Z,95106.38
2022-09-14T21:02:13.917Z,95105.56
2022-09-14T21:04:13.990Z,95104.56
2022-09-14T21:06:16.713Z,95095.78
2022-09-14T21:08:14.936Z,95086.44
2022-09-14T21:10:13.151Z,95096.16
2022-09-14T21:12:14.251Z,95097.06
2022-09-14T21:14:12.728Z,95093.81
2022-09-14T21:16:15.661Z,95092.84
2022-09-14T21:18:17.561Z,95097.44
2022-09-14T21:20:18.209Z,95094.63
2022-09-14T21:22:17.105Z,95096.44
2022-09-14T21:24:16.596Z,95101.41
2022-09-14T21:26:14.877Z,95103.16
2022-09-14T21:28:13.641Z,95110.44
2022-09-14T21:30:12.467Z,95103.34
2022-09-14T21:32:12.153Z,95099.19
2022-09-14T21:34:12.741Z,95094.31
2022-09-14T21:36:14.346Z,95092.09
2022-09-14T21:38:13.004Z,95083.28
2022-09-14T21:40:12.043Z,95088.81
2022-09-14T21:42:10.339Z,95090.44
2022-09-14T21:44:08.655Z,95100.47
2022-09-14T21:46:07.848Z,95102.22
2022-09-14T21:48:07.849Z,95092.38
2022-09-14T21:50:09.505Z,95088.63
2022-09-14T21:52:07.793Z,95080.84
2022-09-14T21:54:08.226Z,95077.19
2022-09-14T21:56:07.556Z,95088.66
2022-09-14T21:58:05.896Z,95090.88
2022-09-14T22:00:06.197Z,95088.47
2022-09-14T22:02:04.896Z,95082.88
2022-09-14T22:04:06.621Z,95089.84
2022-09-14T22:06:06.597Z,95096.81
2022-09-14T22:08:04.848Z,95098.56
2022-09-14T22:10:03.830Z,95091.44
2022-09-14T22:12:02.271Z,95089.75
2022-09-14T22:14:02.450Z,95087.38
2022-09-14T22:16:01.230Z,95098.31
2022-09-14T22:18:02.099Z,95103.22
2022-09-14T22:20:02.433Z,95094.59
2022-09-14T22:22:00.975Z,95094.41
2022-09-14T22:24:03.204Z,95097.25
2022-09-14T22:26:06.087Z,95099.34
2022-09-14T22:28:04.547Z,95108.00
2022-09-14T22:30:04.750Z,95109.38
2022-09-14T22:32:05.646Z,95107.50
2022-09-14T22:34:03.832Z,95111.81
2022-09-14T22:36:05.277Z,95115.09
2022-09-14T22:38:03.515Z,95112.25
2022-09-14T22:40:01.681Z,95131.56
2022-09-14T22:41:59.851Z,95134.03
2022-09-14T22:43:58.296Z,95138.63
2022-09-14T22:45:56.968Z,95123.00
2022-09-14T22:47:55.211Z,95127.38
2022-09-14T22:49:53.762Z,95134.31
2022-09-14T22:51:53.389Z,95123.91
2022-09-14T22:53:52.058Z,95118.78
2022-09-14T22:55:50.896Z,95128.72
2022-09-14T22:57:49.198Z,95136.50
2022-09-14T22:59:47.394Z,95127.69
2022-09-14T23:01:45.867Z,95125.03
2022-09-14T23:03:44.530Z,95119.06
2022-09-14T23:05:50.759Z,95127.56
2022-09-14T23:07:50.269Z,95125.25
2022-09-14T23:09:48.714Z,95118.72
2022-09-14T23:11:47.315Z,95120.16
2022-09-14T23:13:45.444Z,95124.78
2022-09-14T23:15:43.917Z,95120.66
2022-09-14T23:17:42.227Z,95124.25
2022-09-14T23:19:40.366Z,95111.16
2022-09-14T23:21:38.598Z,95112.34
2022-09-14T23:23:39.309Z,95108.50
2022-09-14T23:25:38.873Z,95112.13
2022-09-14T23:27:36.919Z,95104.47
2022-09-14T23:29:35.209Z,95101.63
2022-09-14T23:31:33.865Z,95108.97
2022-09-14T23:33:32.309Z,95114.97
2022-09-14T23:35:32.865Z,95106.56
2022-09-14T23:37:34.146Z,95106.91
2022-09-14T23:39:33.595Z,95105.13
2022-09-14T23:41:32.290Z,95110.19
2022-09-14T23:43:30.443Z,95108.19
2022-09-14T23:45:28.597Z,95104.72
2022-09-14T23:47:27.111Z,95106.28
2022-09-14T23:49:25.206Z,95106.16
2022-09-14T23:51:24.580Z,95099.19